Hollinger, Nebraska
Current Conditions -  °F | °C
As of 9:35 AM on Saturday 25 Oct 2014 (Local Time) from KHDE Reporting Station
Clear Clear  
Wind Chill: 51°   Ceiling: Unl
Heat Index: 51°   Visibility: 10mi
Dew Point: 45°   Wind: 0mph
Humidity: 79%   Direction: NA
Pressure: 30.12"   Gusts: NA
Location:  40.2849°N, 99.6171°W
Report Text: KHDE 251435Z AUTO 00000KT 10SM CLR 11/07 A3012 RMK AO2 T01070072
Loading
Personal Weather Stations






























Interactive Weather Map
Tropical Storm Tracking
New forecast layout! Learn more

10-Day Weather Forecast

Advertisements
Track Severe Weather on mobile